Time;durP1;ratioP1;P1;durP2;ratioP2;P2;SDS_P1;SDS_P2;PMS_P1;PMS_P2;Temp;Humidity;BMP_temperature;BMP_pressure;BME280_temperature;BME280_humidity;BME280_pressure;Samples;Min_cycle;Max_cycle;Signal;HPM_P1;HPM_P2
2021/12/17 00:00:46;;;;;;;61.17;36.83;;;6.60;99.90;;;5.52;99.44;100075.38;5088802;28;20552;-66
2021/12/17 00:03:18;;;;;;;55.87;34.60;;;6.70;99.90;;;5.35;99.65;100064.28;5088782;28;20860;-67
2021/12/17 00:08:35;;;;;;;58.63;35.93;;;6.70;99.90;;;5.28;100.00;100073.81;5085175;28;20465;-67
2021/12/17 00:11:03;;;;;;;55.20;34.87;;;6.60;99.90;;;5.30;100.00;100069.19;5116205;27;20476;-66
2021/12/17 00:13:31;;;;;;;51.77;33.80;;;6.60;99.90;;;4.95;100.00;100030.16;5088223;28;20459;-66
2021/12/17 00:16:00;;;;;;;64.03;37.80;;;6.50;99.90;;;4.98;100.00;100064.72;5085976;28;21065;-67
2021/12/17 00:18:34;;;;;;;62.30;37.00;;;6.40;99.90;;;4.93;100.00;100058.91;5088434;28;20502;-67
2021/12/17 00:43:49;;;;;;;56.83;35.27;;;6.40;99.90;;;5.02;100.00;100035.84;5097549;28;20915;-66
2021/12/17 00:48:44;;;;;;;61.57;34.03;;;6.30;99.90;;;4.93;100.00;100043.69;5089659;28;20463;-67
2021/12/17 00:51:47;;;;;;;65.07;37.30;;;6.30;99.90;;;4.73;100.00;100042.66;5088172;28;20467;-67
2021/12/17 00:54:21;;;;;;;57.67;33.43;;;6.20;99.90;;;4.95;100.00;100031.00;5085300;28;20462;-67
2021/12/17 00:56:50;;;;;;;157.83;44.10;;;6.30;99.90;;;4.59;100.00;100024.22;5086871;28;20459;-66
2021/12/17 00:59:18;;;;;;;59.27;34.40;;;6.10;99.90;;;4.63;100.00;100031.03;5085658;28;20560;-67
2021/12/17 01:01:46;;;;;;;198.77;44.10;;;6.00;99.90;;;4.71;100.00;100025.03;5093144;28;20488;-66
2021/12/17 01:04:15;;;;;;;91.33;38.53;;;6.10;99.90;;;4.70;100.00;100026.84;5087925;28;20556;-67
2021/12/17 01:06:43;;;;;;;111.43;38.77;;;6.00;99.90;;;4.90;100.00;100011.78;5085749;28;20487;-66
2021/12/17 01:09:14;;;;;;;150.37;39.60;;;6.10;99.90;;;4.93;100.00;100021.41;5085452;28;20464;-67
2021/12/17 01:11:41;;;;;;;114.03;37.30;;;6.20;99.90;;;4.79;100.00;100026.09;5083136;28;20551;-70
2021/12/17 01:14:08;;;;;;;253.93;45.40;;;6.10;99.90;;;4.80;100.00;100019.75;5085549;28;21227;-66
2021/12/17 01:16:36;;;;;;;183.37;40.17;;;6.10;99.90;;;4.62;100.00;100024.81;5086059;28;20467;-67
2021/12/17 01:19:13;;;;;;;180.83;41.90;;;6.00;99.90;;;4.52;100.00;100019.38;5081445;28;20492;-67
2021/12/17 01:21:57;;;;;;;522.33;70.17;;;5.90;99.90;;;4.57;100.00;100015.47;5088677;28;20511;-66
2021/12/17 01:24:41;;;;;;;273.57;43.20;;;5.90;99.90;;;4.70;100.00;100021.50;5081958;28;20467;-67
2021/12/17 01:35:26;;;;;;;157.57;36.10;;;6.00;99.90;;;4.72;100.00;100024.06;5097198;28;20478;-67
2021/12/17 01:41:11;;;;;;;201.93;36.90;;;6.00;99.90;;;4.49;100.00;100018.78;5086960;28;20451;-67
2021/12/17 01:43:45;;;;;;;125.60;34.30;;;5.90;99.90;;;4.41;100.00;100019.41;5083956;28;20471;-67
2021/12/17 01:46:17;;;;;;;198.77;36.60;;;5.80;99.90;;;4.48;100.00;100023.31;5084785;28;20501;-67
2021/12/17 01:49:02;;;;;;;113.10;30.50;;;5.80;99.90;;;4.48;100.00;100023.31;5081795;28;20460;-67
2021/12/17 01:59:19;;;;;;;81.63;29.00;;;5.80;99.90;;;4.31;100.00;100019.31;5084661;28;20475;-67
2021/12/17 01:59:51;;;;;;;187.83;34.40;;;5.70;99.90;;;4.44;100.00;100018.31;5085319;28;20461;-67
2021/12/17 02:02:19;;;;;;;68.57;28.70;;;5.70;99.90;;;4.29;100.00;100015.06;5083996;28;20448;-67
2021/12/17 02:04:46;;;;;;;96.73;29.97;;;5.60;99.90;;;4.44;100.00;100016.47;5105314;28;20456;-66
2021/12/17 02:07:13;;;;;;;94.97;29.63;;;5.70;99.90;;;4.46;100.00;100019.88;5083889;28;20538;-66
2021/12/17 02:21:12;;;;;;;176.87;35.50;;;5.40;99.90;;;4.10;100.00;100003.19;5092302;28;20451;-67
2021/12/17 02:29:41;;;;;;;101.83;30.00;;;5.50;99.90;;;4.04;100.00;100003.72;5090263;28;20452;-67
2021/12/17 02:32:09;;;;;;;216.27;36.60;;;5.50;99.90;;;4.05;100.00;100000.06;5090690;28;20547;-66
2021/12/17 02:34:59;;;;;;;69.53;28.20;;;5.40;99.90;;;4.27;100.00;100009.84;5086219;28;20611;-66
2021/12/17 02:37:28;;;;;;;52.50;26.67;;;5.50;99.90;;;4.22;100.00;99991.50;5089690;28;20973;-66
2021/12/17 02:40:10;;;;;;;58.20;25.37;;;5.50;99.90;;;4.31;100.00;99989.03;5094866;28;23250;-67
2021/12/17 02:45:34;;;;;;;75.20;26.83;;;5.60;99.90;;;4.11;100.00;100003.09;5062821;28;21957;-67
2021/12/17 02:48:06;;;;;;;79.53;28.30;;;5.50;99.90;;;4.15;100.00;100003.66;5089150;28;20458;-66
2021/12/17 02:50:35;;;;;;;175.70;32.37;;;5.50;99.90;;;3.91;100.00;99987.78;5088832;28;20844;-66
2021/12/17 02:53:07;;;;;;;130.93;31.73;;;5.40;99.90;;;3.68;100.00;99983.31;5089184;28;20488;-66
2021/12/17 02:55:38;;;;;;;89.47;28.10;;;5.20;99.90;;;3.91;100.00;99993.13;5089582;28;20460;-66
2021/12/17 02:58:06;;;;;;;81.60;27.63;;;5.20;99.90;;;4.01;100.00;99982.53;5088763;28;20554;-66
2021/12/17 03:00:35;;;;;;;126.47;28.70;;;5.30;99.90;;;3.97;100.00;99990.81;5088731;28;20463;-67
2021/12/17 03:03:06;;;;;;;60.40;27.87;;;5.40;99.90;;;3.93;100.00;99976.00;5088866;28;20544;-67
2021/12/17 03:05:34;;;;;;;76.60;27.70;;;5.30;99.90;;;4.08;100.00;99973.03;5088070;28;20876;-68
2021/12/17 03:08:05;;;;;;;66.00;26.83;;;5.40;99.90;;;4.06;100.00;99970.47;5090701;28;20459;-67
2021/12/17 03:10:33;;;;;;;74.33;27.47;;;5.40;99.90;;;4.06;100.00;99975.00;5085603;28;20452;-67
2021/12/17 03:13:02;;;;;;;78.50;28.00;;;5.40;99.90;;;3.88;100.00;99983.56;5084242;28;20512;-67
2021/12/17 03:15:35;;;;;;;92.17;25.73;;;5.40;99.90;;;3.87;100.00;99975.63;5085479;28;20456;-67
2021/12/17 03:18:40;;;;;;;60.23;23.90;;;5.30;99.90;;;3.92;100.00;99974.28;5093643;28;20488;-67
2021/12/17 03:23:51;;;;;;;85.03;25.70;;;5.30;99.90;;;3.71;100.00;99968.00;5098167;28;20467;-67
2021/12/17 03:26:22;;;;;;;103.87;26.13;;;5.10;99.90;;;3.63;100.00;99969.47;5082868;28;20516;-67
2021/12/17 03:28:55;;;;;;;119.20;28.40;;;5.10;99.90;;;3.60;100.00;99966.19;5084196;28;20458;-66
2021/12/17 03:31:24;;;;;;;85.43;22.87;;;5.00;99.90;;;3.43;100.00;99976.41;5088381;28;20456;-67
2021/12/17 03:33:59;;;;;;;186.77;34.33;;;4.90;99.90;;;3.50;100.00;99990.13;5090333;28;20539;-66
2021/12/17 03:36:27;;;;;;;88.00;26.17;;;4.90;99.90;;;3.39;100.00;100002.50;5091354;28;20466;-66
2021/12/17 03:38:56;;;;;;;71.90;24.07;;;4.90;99.90;;;3.59;100.00;99989.41;5088565;28;20498;-66
2021/12/17 03:41:27;;;;;;;101.57;28.17;;;4.90;99.90;;;3.30;100.00;99986.34;5086425;28;20583;-66
2021/12/17 03:43:55;;;;;;;81.70;26.53;;;4.80;99.90;;;3.36;100.00;99968.00;5088430;28;20460;-66
2021/12/17 03:46:23;;;;;;;94.57;27.17;;;4.80;99.90;;;3.46;100.00;99977.97;5082981;28;20460;-66
2021/12/17 03:48:51;;;;;;;73.63;26.60;;;4.80;99.90;;;3.47;100.00;99982.34;5088476;28;20565;-66
2021/12/17 03:51:19;;;;;;;56.03;22.80;;;4.90;99.90;;;3.59;100.00;99983.19;5086700;28;20502;-66
2021/12/17 03:53:51;;;;;;;66.53;25.20;;;5.00;99.90;;;3.59;100.00;99975.19;5087363;28;20444;-66
2021/12/17 03:56:20;;;;;;;234.87;37.20;;;5.00;99.90;;;3.29;100.00;99971.28;5087566;28;20466;-66
2021/12/17 03:58:48;;;;;;;101.67;26.00;;;4.80;99.90;;;3.25;100.00;99978.69;5089750;28;20448;-66
2021/12/17 04:01:15;;;;;;;150.43;30.63;;;4.70;99.90;;;3.16;100.00;99980.25;5090657;28;20467;-67
2021/12/17 04:03:43;;;;;;;139.33;28.30;;;4.60;99.90;;;3.24;100.00;99979.66;5088838;28;20461;-68
2021/12/17 04:06:10;;;;;;;73.97;24.47;;;4.70;99.90;;;3.20;100.00;99967.50;5084858;28;20466;-67
2021/12/17 04:08:37;;;;;;;374.63;48.43;;;4.70;99.90;;;3.33;100.00;99984.28;5102284;27;21209;-66
2021/12/17 04:11:06;;;;;;;66.50;23.70;;;4.70;99.90;;;3.32;100.00;99977.25;5087422;28;21038;-67
2021/12/17 04:13:37;;;;;;;76.87;24.60;;;4.80;99.90;;;3.25;100.00;99982.22;5086487;28;20452;-67
2021/12/17 04:16:09;;;;;;;53.60;23.10;;;4.70;99.90;;;3.25;100.00;99986.69;5083914;28;20472;-67
2021/12/17 04:18:41;;;;;;;76.80;25.60;;;4.70;99.90;;;3.11;100.00;99977.97;5091364;28;20521;-67
2021/12/17 04:21:13;;;;;;;109.43;26.00;;;4.60;99.90;;;3.23;100.00;99983.31;5088960;28;20456;-67
2021/12/17 04:23:41;;;;;;;45.00;19.47;;;4.60;99.90;;;3.39;100.00;99981.13;5090587;28;20492;-67
2021/12/17 04:26:08;;;;;;;44.40;19.30;;;4.70;99.90;;;3.43;100.00;99980.91;5088740;28;20460;-66
2021/12/17 04:28:42;;;;;;;58.03;21.77;;;4.80;99.90;;;3.18;100.00;99980.97;5086594;28;20444;-66
2021/12/17 04:31:09;;;;;;;224.10;33.10;;;4.70;99.90;;;3.09;100.00;99998.56;5090163;28;20443;-67
2021/12/17 04:33:38;;;;;;;50.77;19.80;;;4.60;99.90;;;3.17;100.00;99994.47;5092339;28;20828;-67
2021/12/17 04:36:06;;;;;;;66.30;20.30;;;4.60;99.90;;;2.89;100.00;99994.78;5089145;28;20476;-66
2021/12/17 04:38:33;;;;;;;75.87;21.70;;;4.40;99.90;;;2.80;100.00;100006.16;5089537;28;20494;-66
2021/12/17 04:41:30;;;;;;;55.83;20.63;;;4.30;99.90;;;2.95;100.00;100004.13;5085473;28;20492;-66
2021/12/17 04:43:59;;;;;;;42.77;18.30;;;4.40;99.90;;;3.11;100.00;100007.34;5087785;28;20456;-67
2021/12/17 04:46:32;;;;;;;98.47;22.77;;;4.50;99.90;;;3.08;100.00;100006.72;5090915;28;20460;-67
2021/12/17 05:00:03;;;;;;;68.90;20.90;;;4.50;99.90;;;3.11;100.00;100009.16;5096654;28;20714;-66
2021/12/17 05:02:33;;;;;;;55.73;20.83;;;4.50;99.90;;;3.13;100.00;100009.03;5089497;28;20460;-66
2021/12/17 05:05:05;;;;;;;57.73;20.23;;;4.60;99.90;;;3.00;100.00;100001.97;5095573;28;20462;-66
2021/12/17 05:07:33;;;;;;;59.57;20.90;;;4.50;99.90;;;3.01;100.00;100003.69;5089294;28;20463;-66
2021/12/17 05:10:08;;;;;;;55.43;19.97;;;4.50;99.90;;;2.91;100.00;100003.53;5085017;28;20547;-66
2021/12/17 05:18:18;;;;;;;46.07;13.23;;;4.50;99.90;;;2.90;100.00;100019.66;5088190;28;20483;-66
2021/12/17 05:20:48;;;;;;;28.70;13.53;;;4.40;99.90;;;2.65;100.00;99994.81;5087586;28;20456;-66
2021/12/17 05:23:15;;;;;;;35.37;13.03;;;4.30;99.90;;;2.81;100.00;100027.41;5089376;28;20529;-67
2021/12/17 05:25:42;;;;;;;45.17;14.00;;;4.30;99.90;;;2.70;100.00;100022.03;5090022;28;21106;-67
2021/12/17 05:28:09;;;;;;;32.30;12.90;;;4.20;99.90;;;2.74;100.00;100015.47;5087737;28;20543;-66
2021/12/17 05:30:44;;;;;;;62.13;14.63;;;4.20;99.90;;;2.51;100.00;100009.19;5101913;28;20886;-66
2021/12/17 05:33:11;;;;;;;55.10;14.40;;;4.10;99.90;;;1.48;100.00;99843.34;5089108;28;20571;-67
2021/12/17 05:35:38;;;;;;;38.30;14.50;;;4.10;99.90;;;2.54;100.00;100025.84;5088198;28;20460;-66
2021/12/17 05:38:05;;;;;;;51.80;15.20;;;4.00;99.90;;;2.54;100.00;100030.31;5088290;28;20573;-67
2021/12/17 05:40:32;;;;;;;81.03;18.37;;;4.00;99.90;;;2.47;100.00;100023.75;5081430;28;20444;-69
2021/12/17 05:43:02;;;;;;;54.47;13.30;;;4.00;99.90;;;2.62;100.00;100025.28;5084510;28;20467;-69
2021/12/17 05:45:34;;;;;;;35.67;14.00;;;4.10;99.90;;;2.55;100.00;100038.22;5089749;28;20914;-68
2021/12/17 05:48:06;;;;;;;48.73;14.63;;;4.00;99.90;;;2.52;100.00;100041.13;5097776;28;20457;-70
2021/12/17 05:50:36;;;;;;;97.47;20.83;;;4.00;99.90;;;2.63;100.00;100034.13;5094810;28;20992;-68
2021/12/17 05:53:05;;;;;;;68.13;15.80;;;4.00;99.90;;;2.58;100.00;100036.28;5099450;28;21087;-69
2021/12/17 05:55:32;;;;;;;90.43;17.10;;;4.00;99.90;;;2.58;100.00;100036.28;5101124;28;20481;-69
2021/12/17 05:57:59;;;;;;;96.53;18.00;;;4.00;99.90;;;2.53;100.00;100037.50;5090158;28;20483;-68
2021/12/17 06:00:29;;;;;;;38.43;13.73;;;4.00;99.90;;;2.50;100.00;100040.38;5100971;27;20535;-69
2021/12/17 06:02:57;;;;;;;102.13;19.03;;;4.00;99.90;;;2.50;100.00;100040.38;5090969;28;20916;-69
2021/12/17 06:05:26;;;;;;;74.27;18.10;;;3.90;99.90;;;2.40;100.00;100029.53;5090047;28;20492;-69
2021/12/17 06:07:53;;;;;;;27.73;13.17;;;3.90;99.90;;;2.52;100.00;100032.25;5085035;28;20516;-68
2021/12/17 06:10:21;;;;;;;52.63;15.50;;;3.90;99.90;;;2.39;100.00;100032.31;5091531;28;20533;-69
2021/12/17 06:12:49;;;;;;;42.77;13.47;;;3.90;99.90;;;2.38;100.00;100031.44;5082289;28;20458;-74
2021/12/17 06:15:18;;;;;;;35.77;13.97;;;3.90;99.90;;;2.36;100.00;100037.88;5082124;28;20518;-70
2021/12/17 06:17:46;;;;;;;28.33;11.50;;;3.90;99.90;;;2.39;100.00;100038.50;5091925;28;20809;-67
2021/12/17 06:20:15;;;;;;;23.97;11.70;;;3.90;99.90;;;2.38;100.00;100034.13;5088288;28;20459;-67
2021/12/17 06:22:44;;;;;;;33.63;11.60;;;3.80;99.90;;;2.35;100.00;100036.16;5090461;28;20480;-67
2021/12/17 06:25:12;;;;;;;66.47;14.73;;;3.80;99.90;;;2.29;100.00;100031.28;5091938;28;20464;-67
2021/12/17 06:27:42;;;;;;;57.10;14.33;;;3.80;99.90;;;2.26;100.00;100033.22;5087782;28;20463;-68
2021/12/17 06:30:14;;;;;;;60.27;16.97;;;3.70;99.90;;;2.24;100.00;100023.63;5087720;28;20460;-68
2021/12/17 06:32:42;;;;;;;167.53;24.03;;;3.70;99.90;;;2.39;100.00;100021.66;5089814;28;20542;-69
2021/12/17 06:35:10;;;;;;;80.30;18.20;;;3.80;99.90;;;2.38;100.00;100020.78;5086042;28;20538;-67
2021/12/17 06:37:40;;;;;;;69.53;15.00;;;3.90;99.90;;;2.44;100.00;100018.66;5087499;28;20610;-67
2021/12/17 06:40:11;;;;;;;31.70;13.40;;;3.90;99.90;;;2.36;100.00;100027.22;5084984;28;21247;-66
2021/12/17 06:42:38;;;;;;;39.70;14.20;;;3.80;99.90;;;2.29;100.00;100015.28;5084079;28;20453;-66
2021/12/17 06:45:15;;;;;;;42.10;13.90;;;3.80;99.90;;;2.24;100.00;100003.13;5089333;28;20472;-66
2021/12/17 06:47:45;;;;;;;48.73;14.27;;;3.70;99.90;;;2.38;100.00;100004.78;5099500;28;20500;-66
2021/12/17 06:56:30;;;;;;;129.43;19.70;;;3.90;99.90;;;2.85;100.00;100017.34;5090533;28;20840;-67
2021/12/17 06:59:00;;;;;;;54.80;15.37;;;4.20;99.90;;;2.77;100.00;100019.75;5086479;28;20516;-72
2021/12/17 07:18:35;;;;;;;44.53;14.07;;;3.70;99.90;;;2.33;100.00;100022.09;5080519;28;20464;-67
2021/12/17 07:24:03;;;;;;;54.97;16.10;;;3.70;99.90;;;2.25;100.00;100018.19;5086071;28;20464;-73
2021/12/17 07:32:30;;;;;;;39.23;12.83;;;3.70;99.90;;;2.19;100.00;100015.09;5046987;28;20458;-69
2021/12/17 07:35:24;;;;;;;53.30;14.03;;;3.70;99.90;;;2.10;100.00;100027.31;5092880;28;20455;-69
2021/12/17 07:40:37;;;;;;;52.43;13.17;;;3.70;99.90;;;2.02;100.00;100019.00;5089875;28;20831;-73
2021/12/17 07:43:11;;;;;;;51.07;12.90;;;3.60;99.90;;;2.10;100.00;100019.31;5085107;28;20582;-69
2021/12/17 07:45:40;;;;;;;44.47;12.07;;;3.60;99.90;;;2.15;100.00;100029.63;5086370;28;20557;-69
2021/12/17 07:48:07;;;;;;;29.43;11.73;;;3.60;99.90;;;2.11;100.00;100031.66;5087995;28;21273;-68
2021/12/17 07:50:35;;;;;;;44.97;13.10;;;3.60;99.90;;;2.09;100.00;100026.44;5081757;28;20580;-68
2021/12/17 07:53:02;;;;;;;38.17;11.20;;;3.60;99.90;;;2.04;100.00;100039.25;5087762;28;20502;-68
2021/12/17 07:55:29;;;;;;;54.00;13.37;;;3.60;99.90;;;2.11;100.00;100035.16;5087664;28;20541;-68
2021/12/17 07:57:56;;;;;;;47.23;17.40;;;3.60;99.90;;;2.24;100.00;100043.16;5094755;28;20439;-68
2021/12/17 08:00:24;;;;;;;44.23;14.87;;;3.70;99.90;;;2.35;100.00;100049.50;5081749;28;20456;-69
2021/12/17 08:02:52;;;;;;;52.30;14.90;;;3.80;99.90;;;2.25;100.00;100052.00;5087500;28;20483;-69
2021/12/17 08:05:19;;;;;;;34.17;13.03;;;3.70;99.90;;;2.32;100.00;100055.94;5088014;28;20551;-70
2021/12/17 08:07:47;;;;;;;76.67;15.50;;;3.70;99.90;;;2.18;100.00;100056.09;5084753;28;20537;-69
2021/12/17 08:10:14;;;;;;;35.60;13.53;;;3.70;99.90;;;2.37;100.00;100055.59;5084301;28;20546;-71
2021/12/17 08:12:41;;;;;;;36.73;13.03;;;3.80;99.90;;;2.41;100.00;100057.91;5084187;28;21080;-70
2021/12/17 08:15:11;;;;;;;32.93;13.27;;;3.80;99.90;;;2.34;100.00;100063.81;5085894;28;20597;-68
2021/12/17 08:18:11;;;;;;;37.13;13.77;;;3.80;99.90;;;2.33;100.00;100060.31;5085692;28;20517;-68
2021/12/17 08:26:15;;;;;;;43.47;13.37;;;3.80;99.90;;;2.35;100.00;100063.69;5087124;28;20452;-69
2021/12/17 08:28:55;;;;;;;51.90;13.83;;;3.80;99.90;;;2.44;100.00;100067.50;5087397;28;20549;-71
2021/12/17 08:31:23;;;;;;;61.57;16.23;;;3.90;99.90;;;2.26;100.00;100054.56;5086748;28;20455;-69
2021/12/17 08:33:50;;;;;;;52.13;15.87;;;3.80;99.90;;;2.18;100.00;100058.75;5085557;28;20488;-70
2021/12/17 08:36:19;;;;;;;45.33;13.97;;;3.80;99.90;;;2.17;100.00;100046.38;5088878;28;20502;-70
2021/12/17 08:38:49;;;;;;;28.20;13.20;;;3.80;99.90;;;2.47;100.00;100056.59;5094825;28;20476;-70
2021/12/17 08:41:19;;;;;;;53.63;13.90;;;3.90;99.90;;;2.48;100.00;100068.97;5087502;28;20458;-70
2021/12/17 08:43:47;;;;;;;27.20;11.93;;;3.90;99.90;;;2.58;100.00;100069.19;5085746;28;20471;-70
2021/12/17 08:46:14;;;;;;;66.33;13.10;;;4.00;99.90;;;2.60;100.00;100079.72;5088818;28;20543;-68
2021/12/17 08:48:42;;;;;;;41.40;12.43;;;4.10;99.90;;;2.49;99.70;100062.69;5086926;28;20447;-70
2021/12/17 08:51:09;;;;;;;37.40;12.47;;;4.00;99.90;;;2.57;99.71;100063.94;5091508;28;21018;-69
2021/12/17 08:53:39;;;;;;;84.33;16.20;;;4.00;99.90;;;2.38;100.00;100078.66;5083273;28;21035;-68
2021/12/17 08:56:07;;;;;;;40.37;11.47;;;4.00;99.90;;;2.37;99.95;100076.94;5083750;28;20466;-68
2021/12/17 08:58:35;;;;;;;41.63;11.93;;;3.90;99.90;;;2.37;99.85;100080.44;5086624;28;20554;-68
2021/12/17 09:01:04;;;;;;;38.27;10.80;;;3.90;99.90;;;2.39;99.86;100080.34;5083741;28;20452;-67
2021/12/17 09:03:32;;;;;;;31.30;10.07;;;3.90;99.90;;;2.33;100.00;100076.31;5087662;28;20464;-68
2021/12/17 09:05:59;;;;;;;32.40;11.17;;;3.80;99.90;;;2.28;100.00;100073.13;5083467;28;20553;-67
2021/12/17 09:08:26;;;;;;;69.10;14.67;;;3.80;99.90;;;2.28;100.00;100082.94;5090710;28;20588;-67
2021/12/17 09:10:55;;;;;;;37.80;12.47;;;3.80;99.90;;;2.37;100.00;100087.63;5084256;28;20449;-69
2021/12/17 09:13:25;;;;;;;71.57;15.27;;;3.90;99.90;;;2.39;100.00;100083.00;5087257;28;20460;-68
2021/12/17 09:15:54;;;;;;;59.70;14.37;;;3.90;99.90;;;2.50;100.00;100088.44;5084403;28;20439;-68
2021/12/17 09:18:21;;;;;;;44.63;13.33;;;3.90;99.90;;;2.50;100.00;100077.75;5088835;28;20835;-67
2021/12/17 09:20:48;;;;;;;73.33;16.63;;;4.00;99.90;;;2.65;100.00;100077.56;5092038;28;20509;-68
2021/12/17 09:23:15;;;;;;;85.93;17.77;;;4.10;99.90;;;2.74;100.00;100074.22;5105262;28;20869;-68
2021/12/17 09:25:43;;;;;;;23.47;12.00;;;4.20;99.90;;;2.61;99.41;100070.75;5085577;28;21162;-67
2021/12/17 09:28:12;;;;;;;24.73;13.13;;;4.20;99.10;;;3.01;99.52;100070.44;5085777;28;20460;-68
2021/12/17 09:30:39;;;;;;;23.33;12.20;;;4.40;99.90;;;3.13;97.69;100071.31;5087602;28;20492;-67
2021/12/17 09:33:06;;;;;;;18.60;11.10;;;4.60;96.30;;;2.98;97.34;100078.69;5093622;28;20455;-67
2021/12/17 09:35:33;;;;;;;26.27;10.30;;;4.50;95.00;;;2.75;97.01;100080.41;5087938;28;20464;-67
2021/12/17 09:38:00;;;;;;;24.40;11.07;;;4.40;94.10;;;2.83;97.46;100068.19;5088295;28;20504;-69
2021/12/17 09:40:27;;;;;;;35.40;11.70;;;4.30;96.00;;;2.90;97.81;100071.25;5088033;28;20863;-68
2021/12/17 09:42:54;;;;;;;24.70;11.07;;;4.40;96.20;;;3.07;96.85;100077.16;5092826;28;20542;-68
2021/12/17 09:45:23;;;;;;;42.90;12.90;;;4.50;95.90;;;3.05;96.10;100071.91;5088801;28;20555;-68
2021/12/17 09:47:50;;;;;;;24.33;10.00;;;4.60;95.10;;;3.32;96.38;100072.56;5089855;28;20459;-68
2021/12/17 09:50:20;;;;;;;27.27;11.17;;;4.60;96.20;;;3.39;95.14;100090.69;5088628;28;20945;-70
2021/12/17 09:52:48;;;;;;;20.03;10.43;;;4.70;94.80;;;3.58;95.06;100086.63;5090959;28;20459;-69
2021/12/17 09:55:16;;;;;;;19.80;9.90;;;4.80;94.80;;;3.42;94.34;100073.56;5089779;28;21003;-69
2021/12/17 09:57:43;;;;;;;30.97;10.80;;;4.90;93.60;;;3.11;95.79;100066.13;5090055;28;20985;-70
2021/12/17 10:00:16;;;;;;;21.70;10.83;;;4.80;93.70;;;3.42;95.10;100072.75;5090268;28;20533;-70
2021/12/17 10:02:46;;;;;;;18.80;10.70;;;4.80;94.20;;;3.68;94.44;100047.47;5092924;28;20478;-71
2021/12/17 10:05:16;;;;;;;17.37;11.20;;;5.00;93.60;;;3.91;93.30;100052.84;5087655;28;20884;-69
2021/12/17 10:07:45;;;;;;;21.13;12.70;;;5.10;93.60;;;4.05;92.33;100073.13;5086582;28;20460;-69
2021/12/17 10:10:13;;;;;;;21.63;11.40;;;5.30;91.90;;;4.06;92.58;100066.78;5085180;28;20452;-69
2021/12/17 10:12:41;;;;;;;25.47;11.57;;;5.40;92.20;;;4.13;92.16;100048.41;5090729;28;20785;-67
2021/12/17 10:15:11;;;;;;;28.50;11.93;;;5.40;91.50;;;3.97;91.51;100052.34;5086946;28;20560;-68
2021/12/17 10:17:54;;;;;;;24.57;13.20;;;5.40;90.90;;;3.88;93.45;100065.59;5088877;28;21065;-67
2021/12/17 10:20:22;;;;;;;26.50;11.57;;;5.30;91.90;;;3.50;95.21;100078.31;5082085;28;20491;-67
2021/12/17 10:22:58;;;;;;;21.00;12.33;;;5.10;92.60;;;3.54;95.06;100069.97;5091439;28;20456;-67
2021/12/17 10:25:26;;;;;;;38.10;13.70;;;5.10;93.80;;;3.35;95.20;100078.53;5086800;28;20459;-67
2021/12/17 10:27:59;;;;;;;39.00;14.57;;;5.00;93.50;;;3.33;96.96;100088.50;5087403;28;20559;-68
2021/12/17 10:30:29;;;;;;;46.60;13.77;;;4.80;95.50;;;3.36;96.66;100084.75;5088247;28;20869;-68
2021/12/17 10:33:00;;;;;;;32.60;13.50;;;4.80;95.60;;;3.45;96.95;100080.53;5086859;28;20445;-68
2021/12/17 10:35:29;;;;;;;39.63;13.97;;;4.80;97.00;;;3.60;96.48;100079.31;5087242;28;20460;-68
2021/12/17 10:38:03;;;;;;;35.67;15.60;;;4.90;96.30;;;3.48;95.87;100088.28;5084874;28;20464;-68
2021/12/17 10:40:32;;;;;;;33.30;14.50;;;4.90;95.40;;;3.29;96.77;100078.16;5085789;28;20993;-68
2021/12/17 10:43:06;;;;;;;43.53;16.07;;;4.90;96.00;;;3.23;96.63;100084.81;5082054;28;20462;-68
2021/12/17 10:45:38;;;;;;;31.10;14.50;;;4.80;95.90;;;3.18;97.63;100073.66;5086010;28;20865;-69
2021/12/17 10:48:25;;;;;;;34.20;15.00;;;4.70;96.20;;;3.04;99.06;100078.22;5082392;28;20544;-68
2021/12/17 10:50:55;;;;;;;26.97;14.63;;;4.60;99.80;;;3.24;99.05;100081.19;5089597;28;20459;-68
2021/12/17 10:53:25;;;;;;;26.90;14.50;;;4.70;99.70;;;3.52;97.58;100071.03;5094764;28;20547;-68
2021/12/17 10:55:52;;;;;;;22.47;12.57;;;4.80;98.90;;;3.40;95.80;100044.28;5091169;28;20456;-68
2021/12/17 10:58:20;;;;;;;32.40;14.83;;;4.90;95.70;;;3.54;96.24;100061.06;5090985;28;20556;-69
2021/12/17 11:00:57;;;;;;;29.27;15.53;;;5.00;95.00;;;3.61;95.83;100058.78;5086598;28;20492;-68
2021/12/17 11:03:26;;;;;;;23.63;13.03;;;5.00;95.90;;;3.64;95.40;100066.53;5104815;27;20460;-68
2021/12/17 11:05:53;;;;;;;30.23;15.00;;;5.10;94.80;;;3.42;96.25;100070.06;5088084;28;20533;-70
2021/12/17 11:08:30;;;;;;;43.47;14.60;;;5.00;94.40;;;3.58;96.14;100065.22;5087419;28;20459;-69
2021/12/17 11:11:08;;;;;;;27.80;14.47;;;5.00;95.20;;;3.90;96.35;100059.16;5086647;28;20459;-70
2021/12/17 11:13:36;;;;;;;29.93;14.40;;;5.20;96.10;;;4.00;95.32;100056.59;5088798;28;20554;-68
2021/12/17 11:16:03;;;;;;;40.20;16.60;;;5.30;94.70;;;3.89;93.58;100052.13;5086383;28;20472;-69
2021/12/17 11:18:31;;;;;;;30.37;14.60;;;5.30;93.40;;;3.92;94.83;100067.03;5086927;28;20468;-68
2021/12/17 11:20:58;;;;;;;24.03;14.80;;;5.30;94.00;;;3.77;95.47;100056.59;5092445;28;20541;-68
2021/12/17 11:23:27;;;;;;;32.60;17.00;;;5.30;94.50;;;3.66;96.73;100052.09;5085225;28;20568;-68
2021/12/17 11:25:55;;;;;;;24.83;14.73;;;5.20;95.00;;;3.78;96.21;100062.81;5081853;28;21515;-69
2021/12/17 11:28:23;;;;;;;28.20;15.30;;;5.20;95.40;;;3.59;95.91;100053.56;5076627;28;20555;-69
2021/12/17 11:30:52;;;;;;;23.17;13.87;;;5.10;94.70;;;3.75;95.92;100036.31;5080385;28;20453;-68
2021/12/17 11:33:20;;;;;;;25.27;13.80;;;5.10;95.70;;;3.61;95.48;100022.22;5096647;27;20480;-69
2021/12/17 11:35:50;;;;;;;23.20;12.50;;;5.10;94.80;;;3.59;96.39;100032.19;5078107;28;21025;-69
2021/12/17 11:38:29;;;;;;;29.60;15.03;;;5.10;95.60;;;3.68;95.71;100042.13;5069048;28;20479;-68
2021/12/17 11:41:05;;;;;;;21.10;12.30;;;5.20;94.70;;;3.76;95.01;100038.00;5077232;28;20546;-67
2021/12/17 11:43:50;;;;;;;23.40;13.00;;;5.20;93.50;;;3.67;94.88;100042.25;5087604;28;20462;-68
2021/12/17 11:46:19;;;;;;;22.47;13.70;;;5.10;93.30;;;3.42;94.68;100035.31;5081894;28;20824;-68
2021/12/17 11:48:52;;;;;;;20.47;12.03;;;5.00;93.00;;;3.46;94.96;100023.41;5087313;28;20542;-69
2021/12/17 11:51:25;;;;;;;22.10;13.73;;;4.90;93.20;;;3.58;95.17;100025.13;5094020;28;20443;-68
2021/12/17 11:54:07;;;;;;;19.77;12.80;;;5.00;94.20;;;3.63;95.42;100022.94;5089502;28;20971;-69
2021/12/17 11:56:45;;;;;;;18.17;12.40;;;5.00;94.80;;;3.50;93.15;100016.84;5085358;28;21087;-69
2021/12/17 11:59:39;;;;;;;19.23;12.33;;;5.00;91.50;;;3.29;94.21;100025.59;5085667;28;20478;-68
2021/12/17 12:02:19;;;;;;;15.57;10.97;;;4.90;91.60;;;3.28;92.83;100031.91;5096990;27;20468;-66
2021/12/17 12:04:54;;;;;;;15.30;10.53;;;4.80;91.20;;;3.31;92.68;100026.31;5082202;28;21296;-68
2021/12/17 12:07:37;;;;;;;12.57;9.10;;;4.80;90.70;;;3.47;92.50;100028.63;5083887;28;20456;-68
2021/12/17 12:10:22;;;;;;;13.17;9.60;;;4.90;91.00;;;3.38;92.47;100030.19;5103514;27;20464;-67
2021/12/17 12:13:01;;;;;;;13.60;9.83;;;4.90;91.00;;;3.40;92.55;100033.59;5086681;28;20840;-68
2021/12/17 12:15:40;;;;;;;15.83;11.67;;;4.90;90.70;;;3.32;92.74;100029.81;5087997;28;20452;-68
2021/12/17 12:18:19;;;;;;;16.77;10.83;;;4.80;91.30;;;3.27;92.00;100022.19;5081664;28;20472;-68
2021/12/17 12:20:59;;;;;;;15.20;9.90;;;4.80;90.10;;;3.28;92.32;100029.22;5095110;28;20489;-68
2021/12/17 12:23:53;;;;;;;15.57;10.83;;;4.80;90.50;;;3.24;92.36;100038.44;5085612;28;20483;-68
2021/12/17 12:26:38;;;;;;;14.87;10.87;;;4.80;90.70;;;3.25;93.14;100040.13;5083484;28;20482;-69
2021/12/17 12:29:28;;;;;;;15.93;10.20;;;4.70;91.60;;;3.16;93.04;100032.84;5086595;28;20460;-68